Terminal Aerodrome Forecast
Issued by NWS Wichita, KS

Home | Current Version | Previous Version | Text Only | Print | Product List | Glossary Off
Versions: 1 2 3 4 5 6 7 8 9 10 11 12 13 14 15 16 17 18 19 20 21

000
FTUS43 KICT 300811 AAB
TAFICT
TAF AMD
KICT 300811Z 3008/0106 30008KT P6SM OVC008
      TEMPO 3008/3012 4SM BR OVC005
     FM301400 27014KT P6SM SCT020 BKN035
     FM301800 25013KT P6SM SCT120
     FM010400 28011KT P6SM SCT200=

USA.gov is the U.S. government's official web portal to all federal, state and local government web resources and services.